sensor_id;sensor_type;location;lat;lon;timestamp;P1;durP1;ratioP1;P2;durP2;ratioP2
3155;SDS011;1588;50.892;7.082;2023-02-25T00:03:10;11.77;;;2.77;;
3155;SDS011;1588;50.892;7.082;2023-02-25T00:08:17;16.30;;;2.70;;
3155;SDS011;1588;50.892;7.082;2023-02-25T00:13:20;18.97;;;3.30;;
3155;SDS011;1588;50.892;7.082;2023-02-25T00:18:24;8.03;;;2.97;;
3155;SDS011;1588;50.892;7.082;2023-02-25T00:23:31;13.00;;;2.53;;
3155;SDS011;1588;50.892;7.082;2023-02-25T00:28:34;10.87;;;2.83;;
3155;SDS011;1588;50.892;7.082;2023-02-25T00:33:42;9.17;;;1.93;;
3155;SDS011;1588;50.892;7.082;2023-02-25T00:38:47;18.30;;;2.77;;
3155;SDS011;1588;50.892;7.082;2023-02-25T00:43:58;16.17;;;3.60;;
3155;SDS011;1588;50.892;7.082;2023-02-25T00:49:03;17.47;;;2.70;;
3155;SDS011;1588;50.892;7.082;2023-02-25T00:54:07;19.17;;;3.30;;
3155;SDS011;1588;50.892;7.082;2023-02-25T00:59:16;21.40;;;3.90;;
3155;SDS011;1588;50.892;7.082;2023-02-25T01:04:20;11.63;;;2.90;;
3155;SDS011;1588;50.892;7.082;2023-02-25T01:09:26;21.73;;;3.97;;
3155;SDS011;1588;50.892;7.082;2023-02-25T01:14:31;14.23;;;2.93;;
3155;SDS011;1588;50.892;7.082;2023-02-25T01:19:38;20.70;;;2.90;;
3155;SDS011;1588;50.892;7.082;2023-02-25T01:24:41;9.03;;;2.27;;
3155;SDS011;1588;50.892;7.082;2023-02-25T01:29:47;16.80;;;2.60;;
3155;SDS011;1588;50.892;7.082;2023-02-25T01:34:53;10.50;;;2.20;;
3155;SDS011;1588;50.892;7.082;2023-02-25T01:40:16;22.37;;;3.13;;
3155;SDS011;1588;50.892;7.082;2023-02-25T01:45:23;9.60;;;2.27;;
3155;SDS011;1588;50.892;7.082;2023-02-25T01:50:34;17.13;;;3.00;;
3155;SDS011;1588;50.892;7.082;2023-02-25T01:55:43;6.67;;;2.20;;
3155;SDS011;1588;50.892;7.082;2023-02-25T02:00:46;12.03;;;2.83;;
3155;SDS011;1588;50.892;7.082;2023-02-25T02:05:52;10.30;;;2.33;;
3155;SDS011;1588;50.892;7.082;2023-02-25T02:11:02;13.73;;;2.53;;
3155;SDS011;1588;50.892;7.082;2023-02-25T02:16:12;2.70;;;1.50;;
3155;SDS011;1588;50.892;7.082;2023-02-25T02:21:39;6.03;;;2.13;;
3155;SDS011;1588;50.892;7.082;2023-02-25T02:26:57;12.63;;;2.20;;
3155;SDS011;1588;50.892;7.082;2023-02-25T02:32:06;15.00;;;2.10;;
3155;SDS011;1588;50.892;7.082;2023-02-25T02:37:17;12.90;;;2.60;;
3155;SDS011;1588;50.892;7.082;2023-02-25T02:42:28;16.30;;;3.13;;
3155;SDS011;1588;50.892;7.082;2023-02-25T02:47:37;12.13;;;2.37;;
3155;SDS011;1588;50.892;7.082;2023-02-25T02:52:45;13.17;;;2.70;;
3155;SDS011;1588;50.892;7.082;2023-02-25T02:57:54;32.07;;;2.83;;
3155;SDS011;1588;50.892;7.082;2023-02-25T03:03:03;22.73;;;2.87;;
3155;SDS011;1588;50.892;7.082;2023-02-25T03:08:10;10.00;;;2.77;;
3155;SDS011;1588;50.892;7.082;2023-02-25T03:13:17;7.03;;;1.93;;
3155;SDS011;1588;50.892;7.082;2023-02-25T03:18:23;4.30;;;1.70;;
3155;SDS011;1588;50.892;7.082;2023-02-25T03:23:34;12.63;;;2.10;;
3155;SDS011;1588;50.892;7.082;2023-02-25T03:28:40;11.43;;;2.53;;
3155;SDS011;1588;50.892;7.082;2023-02-25T03:33:46;15.40;;;2.83;;
3155;SDS011;1588;50.892;7.082;2023-02-25T03:38:51;14.43;;;2.63;;
3155;SDS011;1588;50.892;7.082;2023-02-25T03:43:56;21.57;;;3.83;;
3155;SDS011;1588;50.892;7.082;2023-02-25T03:49:02;9.33;;;2.67;;
3155;SDS011;1588;50.892;7.082;2023-02-25T03:54:06;22.77;;;2.93;;
3155;SDS011;1588;50.892;7.082;2023-02-25T03:59:15;38.23;;;3.67;;
3155;SDS011;1588;50.892;7.082;2023-02-25T04:04:22;11.30;;;2.23;;
3155;SDS011;1588;50.892;7.082;2023-02-25T04:09:24;11.30;;;3.13;;
3155;SDS011;1588;50.892;7.082;2023-02-25T04:14:29;7.30;;;2.40;;
3155;SDS011;1588;50.892;7.082;2023-02-25T04:19:36;13.13;;;2.00;;
3155;SDS011;1588;50.892;7.082;2023-02-25T04:24:38;19.53;;;2.80;;
3155;SDS011;1588;50.892;7.082;2023-02-25T04:29:42;12.33;;;1.63;;
3155;SDS011;1588;50.892;7.082;2023-02-25T04:34:46;4.90;;;1.80;;
3155;SDS011;1588;50.892;7.082;2023-02-25T04:39:48;10.70;;;2.10;;
3155;SDS011;1588;50.892;7.082;2023-02-25T04:44:51;13.53;;;1.90;;
3155;SDS011;1588;50.892;7.082;2023-02-25T04:49:54;14.30;;;2.30;;
3155;SDS011;1588;50.892;7.082;2023-02-25T04:54:59;9.30;;;1.93;;
3155;SDS011;1588;50.892;7.082;2023-02-25T05:00:07;11.67;;;1.93;;
3155;SDS011;1588;50.892;7.082;2023-02-25T05:05:17;14.10;;;2.00;;
3155;SDS011;1588;50.892;7.082;2023-02-25T05:10:19;8.43;;;1.57;;
3155;SDS011;1588;50.892;7.082;2023-02-25T05:15:22;11.60;;;1.87;;
3155;SDS011;1588;50.892;7.082;2023-02-25T05:20:37;16.77;;;2.10;;
3155;SDS011;1588;50.892;7.082;2023-02-25T05:25:40;12.17;;;2.47;;
3155;SDS011;1588;50.892;7.082;2023-02-25T05:30:42;9.60;;;2.13;;
3155;SDS011;1588;50.892;7.082;2023-02-25T05:35:46;9.67;;;1.83;;
3155;SDS011;1588;50.892;7.082;2023-02-25T05:40:48;14.17;;;2.50;;
3155;SDS011;1588;50.892;7.082;2023-02-25T05:45:51;14.20;;;2.03;;
3155;SDS011;1588;50.892;7.082;2023-02-25T05:50:59;14.83;;;2.90;;
3155;SDS011;1588;50.892;7.082;2023-02-25T05:56:06;11.87;;;1.93;;
3155;SDS011;1588;50.892;7.082;2023-02-25T06:01:17;20.43;;;3.03;;
3155;SDS011;1588;50.892;7.082;2023-02-25T06:06:28;10.47;;;1.83;;
3155;SDS011;1588;50.892;7.082;2023-02-25T06:11:31;11.17;;;2.00;;
3155;SDS011;1588;50.892;7.082;2023-02-25T06:16:33;10.00;;;1.70;;
3155;SDS011;1588;50.892;7.082;2023-02-25T06:21:37;20.93;;;2.73;;
3155;SDS011;1588;50.892;7.082;2023-02-25T06:26:40;20.20;;;2.03;;
3155;SDS011;1588;50.892;7.082;2023-02-25T06:31:45;14.20;;;2.60;;
3155;SDS011;1588;50.892;7.082;2023-02-25T06:36:48;9.23;;;2.40;;
3155;SDS011;1588;50.892;7.082;2023-02-25T06:41:51;13.03;;;1.63;;
3155;SDS011;1588;50.892;7.082;2023-02-25T06:46:53;10.00;;;1.67;;
3155;SDS011;1588;50.892;7.082;2023-02-25T06:51:57;18.03;;;2.57;;
3155;SDS011;1588;50.892;7.082;2023-02-25T06:57:07;17.03;;;2.00;;
3155;SDS011;1588;50.892;7.082;2023-02-25T07:02:09;8.43;;;1.43;;
3155;SDS011;1588;50.892;7.082;2023-02-25T07:07:14;10.13;;;1.77;;
3155;SDS011;1588;50.892;7.082;2023-02-25T07:12:16;22.77;;;2.67;;
3155;SDS011;1588;50.892;7.082;2023-02-25T07:17:22;12.40;;;1.90;;
3155;SDS011;1588;50.892;7.082;2023-02-25T07:22:26;12.90;;;1.97;;
3155;SDS011;1588;50.892;7.082;2023-02-25T07:27:28;13.00;;;2.30;;
3155;SDS011;1588;50.892;7.082;2023-02-25T07:32:30;11.77;;;2.33;;
3155;SDS011;1588;50.892;7.082;2023-02-25T07:37:34;8.63;;;1.67;;
3155;SDS011;1588;50.892;7.082;2023-02-25T07:42:37;7.90;;;1.57;;
3155;SDS011;1588;50.892;7.082;2023-02-25T07:47:43;20.63;;;2.77;;
3155;SDS011;1588;50.892;7.082;2023-02-25T07:52:47;16.90;;;2.10;;
3155;SDS011;1588;50.892;7.082;2023-02-25T07:57:49;8.13;;;1.50;;
3155;SDS011;1588;50.892;7.082;2023-02-25T08:02:51;7.00;;;1.97;;
3155;SDS011;1588;50.892;7.082;2023-02-25T08:07:55;12.40;;;2.37;;
3155;SDS011;1588;50.892;7.082;2023-02-25T08:12:57;20.13;;;3.17;;
3155;SDS011;1588;50.892;7.082;2023-02-25T08:18:00;23.10;;;2.70;;
3155;SDS011;1588;50.892;7.082;2023-02-25T08:23:03;15.80;;;2.03;;
3155;SDS011;1588;50.892;7.082;2023-02-25T08:28:05;14.23;;;2.57;;
3155;SDS011;1588;50.892;7.082;2023-02-25T08:33:08;17.97;;;1.90;;
3155;SDS011;1588;50.892;7.082;2023-02-25T08:38:11;25.93;;;2.50;;
3155;SDS011;1588;50.892;7.082;2023-02-25T08:43:13;10.63;;;2.37;;
3155;SDS011;1588;50.892;7.082;2023-02-25T08:48:16;10.90;;;2.60;;
3155;SDS011;1588;50.892;7.082;2023-02-25T08:53:19;8.47;;;2.00;;
3155;SDS011;1588;50.892;7.082;2023-02-25T08:58:22;14.37;;;2.80;;
3155;SDS011;1588;50.892;7.082;2023-02-25T09:03:24;4.13;;;1.20;;
3155;SDS011;1588;50.892;7.082;2023-02-25T09:08:37;8.70;;;1.97;;
3155;SDS011;1588;50.892;7.082;2023-02-25T09:13:40;11.73;;;2.13;;
3155;SDS011;1588;50.892;7.082;2023-02-25T09:18:43;13.20;;;2.10;;
3155;SDS011;1588;50.892;7.082;2023-02-25T09:23:47;11.17;;;2.83;;
3155;SDS011;1588;50.892;7.082;2023-02-25T09:28:50;8.43;;;2.30;;
3155;SDS011;1588;50.892;7.082;2023-02-25T09:33:55;14.53;;;2.57;;
3155;SDS011;1588;50.892;7.082;2023-02-25T09:38:59;12.73;;;2.70;;
3155;SDS011;1588;50.892;7.082;2023-02-25T09:44:03;12.90;;;2.40;;
3155;SDS011;1588;50.892;7.082;2023-02-25T09:49:10;18.23;;;4.30;;
3155;SDS011;1588;50.892;7.082;2023-02-25T09:54:19;15.97;;;3.70;;
3155;SDS011;1588;50.892;7.082;2023-02-25T09:59:26;8.00;;;3.47;;
3155;SDS011;1588;50.892;7.082;2023-02-25T10:04:31;26.10;;;5.30;;
3155;SDS011;1588;50.892;7.082;2023-02-25T10:09:42;14.63;;;4.67;;
3155;SDS011;1588;50.892;7.082;2023-02-25T10:14:58;12.13;;;5.10;;
3155;SDS011;1588;50.892;7.082;2023-02-25T10:20:27;15.57;;;6.47;;
3155;SDS011;1588;50.892;7.082;2023-02-25T10:25:49;13.93;;;5.60;;
3155;SDS011;1588;50.892;7.082;2023-02-25T10:30:58;21.83;;;6.43;;
3155;SDS011;1588;50.892;7.082;2023-02-25T10:36:07;24.40;;;5.87;;
3155;SDS011;1588;50.892;7.082;2023-02-25T10:41:12;23.00;;;5.93;;
3155;SDS011;1588;50.892;7.082;2023-02-25T10:46:16;14.47;;;6.17;;
3155;SDS011;1588;50.892;7.082;2023-02-25T10:51:24;16.80;;;6.20;;
3155;SDS011;1588;50.892;7.082;2023-02-25T10:56:30;21.53;;;7.10;;
3155;SDS011;1588;50.892;7.082;2023-02-25T11:01:35;16.90;;;6.27;;
3155;SDS011;1588;50.892;7.082;2023-02-25T11:06:40;19.70;;;6.13;;
3155;SDS011;1588;50.892;7.082;2023-02-25T11:11:51;18.73;;;5.90;;
3155;SDS011;1588;50.892;7.082;2023-02-25T11:17:01;28.60;;;5.17;;
3155;SDS011;1588;50.892;7.082;2023-02-25T11:22:06;9.17;;;3.07;;
3155;SDS011;1588;50.892;7.082;2023-02-25T11:27:24;5.10;;;1.60;;
3155;SDS011;1588;50.892;7.082;2023-02-25T11:32:32;4.40;;;1.63;;
3155;SDS011;1588;50.892;7.082;2023-02-25T11:37:36;8.80;;;2.10;;
3155;SDS011;1588;50.892;7.082;2023-02-25T11:42:41;6.03;;;1.50;;
3155;SDS011;1588;50.892;7.082;2023-02-25T11:47:43;4.57;;;2.33;;
3155;SDS011;1588;50.892;7.082;2023-02-25T11:52:51;4.47;;;2.20;;
3155;SDS011;1588;50.892;7.082;2023-02-25T11:58:05;3.00;;;2.00;;
3155;SDS011;1588;50.892;7.082;2023-02-25T12:08:49;2.30;;;1.63;;
3155;SDS011;1588;50.892;7.082;2023-02-25T12:25:25;12.83;;;2.20;;
3155;SDS011;1588;50.892;7.082;2023-02-25T12:36:10;3.90;;;2.30;;
3155;SDS011;1588;50.892;7.082;2023-02-25T12:41:27;5.60;;;1.87;;
3155;SDS011;1588;50.892;7.082;2023-02-25T12:46:43;7.23;;;2.30;;
3155;SDS011;1588;50.892;7.082;2023-02-25T12:52:02;3.00;;;1.77;;
3155;SDS011;1588;50.892;7.082;2023-02-25T12:57:20;3.73;;;1.93;;
3155;SDS011;1588;50.892;7.082;2023-02-25T13:02:38;5.40;;;2.63;;
3155;SDS011;1588;50.892;7.082;2023-02-25T13:08:12;9.03;;;2.97;;
3155;SDS011;1588;50.892;7.082;2023-02-25T13:24:39;6.60;;;1.67;;
3155;SDS011;1588;50.892;7.082;2023-02-25T13:30:14;4.50;;;1.67;;
3155;SDS011;1588;50.892;7.082;2023-02-25T13:35:33;5.17;;;1.67;;
3155;SDS011;1588;50.892;7.082;2023-02-25T13:40:50;5.83;;;1.43;;
3155;SDS011;1588;50.892;7.082;2023-02-25T13:46:13;7.57;;;1.73;;
3155;SDS011;1588;50.892;7.082;2023-02-25T13:51:44;3.03;;;1.17;;
3155;SDS011;1588;50.892;7.082;2023-02-25T13:57:13;6.50;;;1.50;;
3155;SDS011;1588;50.892;7.082;2023-02-25T14:02:49;2.80;;;1.67;;
3155;SDS011;1588;50.892;7.082;2023-02-25T14:19:46;2.73;;;1.33;;
3155;SDS011;1588;50.892;7.082;2023-02-25T14:25:43;5.47;;;1.73;;
3155;SDS011;1588;50.892;7.082;2023-02-25T14:31:05;5.13;;;1.40;;
3155;SDS011;1588;50.892;7.082;2023-02-25T14:36:30;12.83;;;2.17;;
3155;SDS011;1588;50.892;7.082;2023-02-25T14:42:35;8.30;;;1.63;;
3155;SDS011;1588;50.892;7.082;2023-02-25T14:47:53;2.83;;;1.30;;
3155;SDS011;1588;50.892;7.082;2023-02-25T15:10:11;10.07;;;1.97;;
3155;SDS011;1588;50.892;7.082;2023-02-25T15:15:25;1.83;;;1.10;;
3155;SDS011;1588;50.892;7.082;2023-02-25T15:20:52;2.17;;;1.00;;
3155;SDS011;1588;50.892;7.082;2023-02-25T15:26:18;2.77;;;1.20;;
3155;SDS011;1588;50.892;7.082;2023-02-25T15:31:26;13.93;;;1.50;;
3155;SDS011;1588;50.892;7.082;2023-02-25T15:36:39;7.60;;;1.73;;
3155;SDS011;1588;50.892;7.082;2023-02-25T15:41:44;2.60;;;1.43;;
3155;SDS011;1588;50.892;7.082;2023-02-25T15:47:09;3.67;;;1.33;;
3155;SDS011;1588;50.892;7.082;2023-02-25T15:57:52;10.23;;;1.47;;
3155;SDS011;1588;50.892;7.082;2023-02-25T16:02:56;6.00;;;1.10;;
3155;SDS011;1588;50.892;7.082;2023-02-25T16:13:25;4.10;;;1.40;;
3155;SDS011;1588;50.892;7.082;2023-02-25T16:18:30;1.53;;;1.10;;
3155;SDS011;1588;50.892;7.082;2023-02-25T16:23:38;3.63;;;1.00;;
3155;SDS011;1588;50.892;7.082;2023-02-25T16:28:44;4.30;;;0.90;;
3155;SDS011;1588;50.892;7.082;2023-02-25T16:33:51;2.53;;;1.03;;
3155;SDS011;1588;50.892;7.082;2023-02-25T16:38:59;2.90;;;1.37;;
3155;SDS011;1588;50.892;7.082;2023-02-25T16:44:14;2.67;;;1.87;;
3155;SDS011;1588;50.892;7.082;2023-02-25T16:49:22;5.37;;;1.10;;
3155;SDS011;1588;50.892;7.082;2023-02-25T16:54:40;2.30;;;1.30;;
3155;SDS011;1588;50.892;7.082;2023-02-25T16:59:43;5.87;;;1.30;;
3155;SDS011;1588;50.892;7.082;2023-02-25T17:04:46;1.60;;;1.50;;
3155;SDS011;1588;50.892;7.082;2023-02-25T17:09:52;9.63;;;1.50;;
3155;SDS011;1588;50.892;7.082;2023-02-25T17:14:59;6.70;;;1.60;;
3155;SDS011;1588;50.892;7.082;2023-02-25T17:20:04;2.10;;;1.40;;
3155;SDS011;1588;50.892;7.082;2023-02-25T17:25:10;3.70;;;1.23;;
3155;SDS011;1588;50.892;7.082;2023-02-25T17:30:34;2.03;;;1.30;;
3155;SDS011;1588;50.892;7.082;2023-02-25T17:35:42;9.90;;;3.70;;
3155;SDS011;1588;50.892;7.082;2023-02-25T17:40:47;5.10;;;2.87;;
3155;SDS011;1588;50.892;7.082;2023-02-25T17:45:52;4.47;;;1.50;;
3155;SDS011;1588;50.892;7.082;2023-02-25T17:51:02;6.40;;;1.37;;
3155;SDS011;1588;50.892;7.082;2023-02-25T17:56:13;2.33;;;1.47;;
3155;SDS011;1588;50.892;7.082;2023-02-25T18:01:23;4.00;;;1.23;;
3155;SDS011;1588;50.892;7.082;2023-02-25T18:06:38;9.73;;;1.93;;
3155;SDS011;1588;50.892;7.082;2023-02-25T18:11:45;5.53;;;1.40;;
3155;SDS011;1588;50.892;7.082;2023-02-25T18:16:54;12.80;;;1.43;;
3155;SDS011;1588;50.892;7.082;2023-02-25T18:21:57;9.90;;;2.73;;
3155;SDS011;1588;50.892;7.082;2023-02-25T18:27:05;9.50;;;2.53;;
3155;SDS011;1588;50.892;7.082;2023-02-25T18:32:21;5.33;;;2.53;;
3155;SDS011;1588;50.892;7.082;2023-02-25T18:37:23;15.10;;;3.70;;
3155;SDS011;1588;50.892;7.082;2023-02-25T18:42:32;22.03;;;5.40;;
3155;SDS011;1588;50.892;7.082;2023-02-25T18:47:34;9.60;;;3.90;;
3155;SDS011;1588;50.892;7.082;2023-02-25T18:52:38;11.67;;;3.70;;
3155;SDS011;1588;50.892;7.082;2023-02-25T18:57:43;10.20;;;4.07;;
3155;SDS011;1588;50.892;7.082;2023-02-25T19:02:46;8.87;;;3.63;;
3155;SDS011;1588;50.892;7.082;2023-02-25T19:07:52;5.37;;;2.37;;
3155;SDS011;1588;50.892;7.082;2023-02-25T19:12:57;25.50;;;8.00;;
3155;SDS011;1588;50.892;7.082;2023-02-25T19:18:03;16.67;;;6.03;;
3155;SDS011;1588;50.892;7.082;2023-02-25T19:23:05;12.03;;;4.47;;
3155;SDS011;1588;50.892;7.082;2023-02-25T19:28:09;8.33;;;4.70;;
3155;SDS011;1588;50.892;7.082;2023-02-25T19:33:14;7.43;;;3.80;;
3155;SDS011;1588;50.892;7.082;2023-02-25T19:38:17;4.50;;;2.73;;
3155;SDS011;1588;50.892;7.082;2023-02-25T19:43:24;7.40;;;2.97;;
3155;SDS011;1588;50.892;7.082;2023-02-25T19:48:27;11.30;;;4.60;;
3155;SDS011;1588;50.892;7.082;2023-02-25T19:53:29;6.40;;;2.70;;
3155;SDS011;1588;50.892;7.082;2023-02-25T19:58:33;10.07;;;4.17;;
3155;SDS011;1588;50.892;7.082;2023-02-25T20:03:39;6.20;;;3.10;;
3155;SDS011;1588;50.892;7.082;2023-02-25T20:08:42;6.20;;;3.00;;
3155;SDS011;1588;50.892;7.082;2023-02-25T20:13:46;6.10;;;2.93;;
3155;SDS011;1588;50.892;7.082;2023-02-25T20:18:52;6.63;;;2.73;;
3155;SDS011;1588;50.892;7.082;2023-02-25T20:23:57;11.53;;;3.40;;
3155;SDS011;1588;50.892;7.082;2023-02-25T20:29:01;23.87;;;7.97;;
3155;SDS011;1588;50.892;7.082;2023-02-25T20:34:04;17.03;;;6.43;;
3155;SDS011;1588;50.892;7.082;2023-02-25T20:39:18;20.73;;;5.80;;
3155;SDS011;1588;50.892;7.082;2023-02-25T20:44:41;16.17;;;5.73;;
3155;SDS011;1588;50.892;7.082;2023-02-25T20:49:44;6.70;;;3.93;;
3155;SDS011;1588;50.892;7.082;2023-02-25T20:54:47;14.27;;;5.70;;
3155;SDS011;1588;50.892;7.082;2023-02-25T20:59:56;8.93;;;4.37;;
3155;SDS011;1588;50.892;7.082;2023-02-25T21:04:58;9.27;;;4.17;;
3155;SDS011;1588;50.892;7.082;2023-02-25T21:10:02;11.17;;;3.77;;
3155;SDS011;1588;50.892;7.082;2023-02-25T21:15:07;10.80;;;3.00;;
3155;SDS011;1588;50.892;7.082;2023-02-25T21:20:10;4.50;;;2.73;;
3155;SDS011;1588;50.892;7.082;2023-02-25T21:25:13;8.73;;;3.27;;
3155;SDS011;1588;50.892;7.082;2023-02-25T21:30:18;9.10;;;2.70;;
3155;SDS011;1588;50.892;7.082;2023-02-25T21:35:20;9.93;;;3.10;;
3155;SDS011;1588;50.892;7.082;2023-02-25T21:40:25;5.27;;;2.90;;
3155;SDS011;1588;50.892;7.082;2023-02-25T21:45:30;10.40;;;4.10;;
3155;SDS011;1588;50.892;7.082;2023-02-25T21:50:32;17.17;;;5.17;;
3155;SDS011;1588;50.892;7.082;2023-02-25T21:55:36;23.77;;;7.07;;
3155;SDS011;1588;50.892;7.082;2023-02-25T22:00:43;48.77;;;12.57;;
3155;SDS011;1588;50.892;7.082;2023-02-25T22:05:45;32.67;;;10.40;;
3155;SDS011;1588;50.892;7.082;2023-02-25T22:10:48;20.23;;;6.57;;
3155;SDS011;1588;50.892;7.082;2023-02-25T22:15:52;14.33;;;5.33;;
3155;SDS011;1588;50.892;7.082;2023-02-25T22:21:03;22.83;;;9.30;;
3155;SDS011;1588;50.892;7.082;2023-02-25T22:26:08;14.73;;;4.33;;
3155;SDS011;1588;50.892;7.082;2023-02-25T22:31:15;8.43;;;2.60;;
3155;SDS011;1588;50.892;7.082;2023-02-25T22:36:18;7.30;;;3.00;;
3155;SDS011;1588;50.892;7.082;2023-02-25T22:41:24;6.30;;;2.67;;
3155;SDS011;1588;50.892;7.082;2023-02-25T22:46:37;19.83;;;3.27;;
3155;SDS011;1588;50.892;7.082;2023-02-25T22:51:41;18.23;;;2.90;;
3155;SDS011;1588;50.892;7.082;2023-02-25T22:56:45;10.73;;;3.17;;
3155;SDS011;1588;50.892;7.082;2023-02-25T23:01:55;28.77;;;3.40;;
3155;SDS011;1588;50.892;7.082;2023-02-25T23:06:58;6.30;;;3.67;;
3155;SDS011;1588;50.892;7.082;2023-02-25T23:12:07;15.47;;;4.37;;
3155;SDS011;1588;50.892;7.082;2023-02-25T23:17:25;6.77;;;3.33;;
3155;SDS011;1588;50.892;7.082;2023-02-25T23:22:27;10.43;;;3.73;;
3155;SDS011;1588;50.892;7.082;2023-02-25T23:27:30;12.50;;;3.70;;
3155;SDS011;1588;50.892;7.082;2023-02-25T23:32:43;7.97;;;3.63;;
3155;SDS011;1588;50.892;7.082;2023-02-25T23:37:49;10.63;;;4.17;;
3155;SDS011;1588;50.892;7.082;2023-02-25T23:42:52;9.40;;;3.17;;
3155;SDS011;1588;50.892;7.082;2023-02-25T23:47:58;11.87;;;3.40;;
3155;SDS011;1588;50.892;7.082;2023-02-25T23:53:01;17.63;;;3.20;;
3155;SDS011;1588;50.892;7.082;2023-02-25T23:58:03;11.23;;;3.90;;
